Résultats de la compétition "Régionale Sprint - Les Glissoires (Avion)" du 14-11-2010 organisée par le club 6208
     
  Télécharger le fichier CSV.  
     
     

 Circuit "A"

Licence Nom Prénom Temps CN
précédent
Score sur
la course
Différence
747TINCHANTJohann0:19:5272025768-1434
6999MAHIEUPierre0:20:5559865478-508
10869DENIERSimon0:22:1557675150-617
18651DROGOULMatthieu0:22:5447275004+277
1947POULAINJoel0:23:0758234957-866
16233DEPRETThomas0:23:3550704859-211
15245BARTOSThomas0:23:3547204859+139
18786SCHIMPFLaurent0:23:4742494818+569
16397CLAIRETRichard0:24:1246934735+42
17574LEQUINTRémi0:24:1358454732-1113
12468RADONDYDaniel0:24:4656224627-995
11434SAUVAGEElsa0:25:1441874541+354
20405CHAPUSStanislas0:25:1643884535+147
1233CREFCOEURPhilippe0:25:2664804505-1975
16143WANTIERLoic0:25:3844014470+69
20648MALAKMaxence0:25:4249464459-487
22302PRUVOSTStephane0:25:43N/A4456N/A
15895LACHAUMEPatrick0:25:4944544439-15
16399GENCEEric0:25:5242574430+173
19240MAZYFrançois-rémi0:25:5545994421-178
16398GRIMBERTHerve0:26:0638454390+545
22219THOMASJulien0:26:2836654330+665
14956LEROYMaxime0:26:4641504281+131
23615URVOYMartial0:26:58N/A4249N/A
16450SENCEStephane0:27:0504231N/A
20741MAMETLudovic0:27:1237764213+437
20177WATRELOTJulien0:28:5038733974+101
18448RICQUEBOURGAxel0:29:0229633947+984
23703GRESSIERLaurent0:29:04N/A3942N/A
22373DELCUSESébastien0:29:0620763938+1862
20676DELINSELLEAlexis0:29:1131963927+731
13838BOUTINDominique0:29:2235663902+336
20550REGNIEZErwan0:29:5239043837-67
20677ANSCUTTEValentin0:30:0535553809+254
22923BOISSAYAntoine0:31:14N/A3669N/A
18803BECARTBernard0:32:0431823573+391
17979DOUGUETDavid0:32:0430173573+556
13271CZERNIAKJerome0:32:1338393557-282
16961PARMENTFabien0:32:3630443515+471
10079PAPINPhilippe0:32:3739673513-454
13088GRENOUILLATJ-Louis0:32:3837773511-266
23028FAVIEREric0:33:07N/A3460N/A
19473WAMBREFranck0:33:27N/A3426N/A
23571BELLENGIERChristophe0:33:45N/A3395N/A
16205HUMBERTCLAUDEJ-Paul0:33:5132243385+161
20149RUDKIEWICZChristophe0:35:0327353269+534
23843DEBLAEREJean-christophe0:35:43N/A3208N/A
23829GARATPierre0:35:57N/A3187N/A
23236WILLEMINFrançois0:37:00N/A3097N/A
18298DUPONTLaurent0:37:2120093068+1059
17664DRAMEZFrederic0:41:3622852755+470
23723BIBASAurélien0:52:48N/A2170N/A
23596GERBEAUXJean-paul0:59:54N/A1913N/A
11524CAROULLEYannickN/A41140-4114
7215LEROYJacquesN/A41700-4170
12963CASTIERPhilippeN/A45230-4523
8081LEGEREPascalN/A50820-5082
7049LEROYSimonN/A67670-6767
17202LAMINETTEFrancoisN/A28040-2804
19699GOBERTAlainN/A41610-4161
13756FLANDRINGautierN/A47410-4741
18874ROBARTSébastienN/A46180-4618

  Indice de confiance du circuit (moyenne des différences entre CN et score sur la course des 3 à 10 premiers) : 214




 Circuit "B"

Licence Nom Prénom Temps CN
précédent
Score sur
la course
Différence
14227DESRUMAUXMarie0:20:1150224516-506
20629KIRILOVAurélie0:21:5930024146+1144
14911LAMINETTEPauline0:22:0039284143+215
10766ROBYNLaurence0:22:0837094118+409
19241VADURELPauline0:22:2437754069+294
18632CUVILLIERSPerrine0:23:0935133937+424
13270ROUXCatherine0:23:3037403878+138
19136TANTARTDelphine0:26:2740443446-598
23560VANDOMMEElodie0:27:03N/A3369N/A
17899DEPERSINIsabelle0:28:0629353243+308
6995DECARPIGNYGwladys0:28:1443043228-1076
18611LANQUETINCéline0:29:2438643100-764
22417GERBEAUXMarie-jeanne0:30:4102970N/A
23424ARROQUIAnne-sophie0:32:16N/A2825N/A
19155GOURLAINMarguerite-marie0:33:0024102762+352
22237VANOVERBERGHENathalie0:34:1516872661+974
1948POULAINOdile0:34:3928522630-222
22418PASSEPONTAudrey0:34:4002629N/A
20425PECQUEURSylvie0:36:0222862529+243
13087GRENOUILLATAnnick0:36:4627812479-302
13635JUDASSylvaine0:38:03N/A2395N/A
22803CLAVELNathalie0:47:45N/A1909N/A
15894LUDEWIG-JAMESCarol0:52:2821281737-391
23842DEBLAERECorinne0:52:35N/A1733N/A
23079MERCIERAgnèsN/AN/A0N/A

  Indice de confiance du circuit (moyenne des différences entre CN et score sur la course des 3 à 10 premiers) : 336




 Circuit "C"

Licence Nom Prénom Temps CN
précédent
Score sur
la course
Différence
19411DUBOISXavier0:19:4644073485-922
23473TASSARTRomain0:20:40N/A3333N/A
9171POULAINYannick0:21:4541893167-1022
22511HENEMANMaxence0:21:5103153N/A
20840DUBUISSONRony0:22:1633193094-225
22925GROSSIKurtys0:22:27N/A3069N/A
20952LOUCHARTVictor0:22:4326433033+390
22370RADONDYThéo0:24:5821252759+634
22433MALAKNathan0:25:3617522691+939
18542RUDKIEWICZMartin0:26:1831352619-516
22347PAILLEUXSteven0:26:5202564N/A
22512GRESSIERTheo0:27:0417452545+800
22804CLAVELMatéo0:27:39N/A2492N/A
22717BAILLIEULMartin0:27:40N/A2490N/A
20684STRATMAINSLudovic0:28:4215052400+895
23015LEICHTTheo0:28:48N/A2392N/A
9172POULAINGael0:29:4729972313-684
23014VELUAntoine0:30:18N/A2274N/A
23539PONCHELValentin0:32:46N/A2102N/A
20029GOBERTAlexandre0:33:5825182028-490
24070HALTZLouis0:34:26N/A2001N/A
23885DUQUENNEAudrey0:35:16N/A1953N/A
13758CREFCOEURLievin0:35:5422321919-313
23662LOUCHARTAuguste0:38:22N/A1796N/A
9164TORZDidier0:40:0036091722-1887
23437GRESSIERFrancis0:40:05N/A1719N/A
19759GOURLAINClément0:41:088081675+867
22540URVOYMateo0:42:5601605N/A
15885GALETClement0:43:3921001578-522
22251FAVIERMaxence0:45:5614001500+100
23992CARRAUDValentin1:04:15N/A1072N/A
23972JANQUINFrançoisN/AN/A0N/A
23897FOUBERTPierre-antoineN/AN/A0N/A

  Indice de confiance du circuit (moyenne des différences entre CN et score sur la course des 3 à 10 premiers) : 423




 Circuit "D"

Licence Nom Prénom Temps CN
précédent
Score sur
la course
Différence
20200LEPERQUEOphelie0:22:4932173272+55
23608MINETConstance0:24:04N/A3102N/A
20572GUILMAINMelanie0:24:1830313072+41
15582CIRAUDOAndrea0:24:3138283045-783
22860MASSINMargot0:25:51N/A2888N/A
20439GOLECZoé0:26:0030002871-129
21323VANOVERBERGHECamille0:27:3926312700+69
22549LECUYERManon0:29:4402511N/A
20224SELINGUECécile0:30:4324732430-43
22250PARENTMathilde0:33:3913342218+884
23768ROBARTBlanche0:34:47N/A2146N/A
23595DELCUSEJulie0:37:09N/A2009N/A
23559LENOBLELou0:37:39N/A1983N/A
23425ARROQUIMathilde0:37:45N/A1977N/A
10081TORZ-DRUONMagali0:38:0529031960-943
20152RUDKIEWICZLucie0:41:4215401790+250
14164EJSMONTMartine0:44:3518311674-157
3429SERREFrancine0:49:3518001505-295
24071VEROVEApolline0:51:32N/A1448N/A
22238VANOVERBERGHEMathildeN/A7960-796
23609MINETClémenceN/AN/A0N/A

  Indice de confiance du circuit (moyenne des différences entre CN et score sur la course des 3 à 10 premiers) : 311






 Retour